Time;durP1;ratioP1;P1;durP2;ratioP2;P2;SDS_P1;SDS_P2;PMS_P1;PMS_P2;Temp;Humidity;BMP_temperature;BMP_pressure;BME280_temperature;BME280_humidity;BME280_pressure;Samples;Min_cycle;Max_cycle;Signal;HPM_P1;HPM_P2
2021/05/02 00:00:20;;;;;;;;;;;19.70;59.40;;;;;;5051972;28;20011;-77
2021/05/02 00:02:46;;;;;;;;;;;19.70;59.30;;;;;;5034772;28;19908;-77
2021/05/02 00:05:12;;;;;;;;;;;19.70;59.40;;;;;;5034938;28;19915;-77
2021/05/02 00:07:38;;;;;;;;;;;19.70;59.40;;;;;;5052480;28;19916;-77
2021/05/02 00:10:05;;;;;;;;;;;19.70;59.30;;;;;;5025987;28;19916;-77
2021/05/02 00:12:30;;;;;;;;;;;19.70;59.40;;;;;;5051714;28;19963;-77
2021/05/02 00:14:56;;;;;;;;;;;19.70;59.30;;;;;;5048134;28;19916;-77
2021/05/02 00:17:21;;;;;;;;;;;19.70;59.30;;;;;;5041645;28;19913;-77
2021/05/02 00:19:48;;;;;;;;;;;19.70;59.30;;;;;;5056168;28;19920;-75
2021/05/02 00:22:16;;;;;;;;;;;19.70;59.30;;;;;;5052593;28;20358;-77
2021/05/02 00:24:41;;;;;;;;;;;19.70;59.30;;;;;;5049865;28;19908;-76
2021/05/02 00:27:07;;;;;;;;;;;19.70;59.30;;;;;;5030790;28;19909;-77
2021/05/02 00:29:34;;;;;;;;;;;19.70;59.30;;;;;;5040573;28;19913;-78
2021/05/02 00:32:00;;;;;;;;;;;19.70;59.30;;;;;;5050185;28;20423;-76
2021/05/02 00:34:27;;;;;;;;;;;19.70;59.30;;;;;;5052127;28;19924;-77
2021/05/02 00:36:53;;;;;;;;;;;19.60;59.30;;;;;;5023171;28;20027;-77
2021/05/02 00:39:18;;;;;;;;;;;19.60;59.30;;;;;;5033563;28;19956;-76
2021/05/02 00:41:45;;;;;;;;;;;19.60;59.30;;;;;;5047627;28;19921;-75
2021/05/02 00:44:16;;;;;;;;;;;19.60;59.30;;;;;;5035687;28;19935;-77
2021/05/02 00:46:53;;;;;;;;;;;19.60;59.30;;;;;;5031495;28;19909;-77
2021/05/02 00:49:29;;;;;;;;;;;19.70;59.30;;;;;;5028255;28;19924;-77
2021/05/02 00:51:58;;;;;;;;;;;19.60;59.30;;;;;;5030703;28;19956;-77
2021/05/02 00:54:33;;;;;;;;;;;19.70;59.30;;;;;;5050921;28;20237;-77
2021/05/02 00:57:00;;;;;;;;;;;19.70;59.30;;;;;;5051695;28;19999;-76
2021/05/02 00:59:42;;;;;;;;;;;19.60;59.30;;;;;;5051771;28;19913;-77
2021/05/02 01:02:09;;;;;;;;;;;19.70;59.30;;;;;;5051556;28;19916;-77
2021/05/02 01:04:34;;;;;;;;;;;19.70;59.30;;;;;;5048474;28;19924;-77
2021/05/02 01:07:01;;;;;;;;;;;19.60;59.30;;;;;;5030237;28;19921;-77
2021/05/02 01:09:28;;;;;;;;;;;19.70;59.30;;;;;;5041628;28;19921;-77
2021/05/02 01:11:54;;;;;;;;;;;19.60;59.30;;;;;;5034215;28;19908;-77
2021/05/02 01:14:22;;;;;;;;;;;19.60;59.30;;;;;;5033886;28;19917;-77
2021/05/02 01:16:49;;;;;;;;;;;19.60;59.30;;;;;;5039978;28;19913;-77
2021/05/02 01:19:15;;;;;;;;;;;19.60;59.30;;;;;;5033768;28;19946;-76
2021/05/02 01:21:41;;;;;;;;;;;19.60;59.30;;;;;;5047974;28;19909;-77
2021/05/02 01:24:08;;;;;;;;;;;19.60;59.20;;;;;;5046295;28;20018;-76
2021/05/02 01:26:44;;;;;;;;;;;19.60;59.30;;;;;;5031725;28;19962;-76
2021/05/02 01:29:10;;;;;;;;;;;19.60;59.30;;;;;;5047887;28;20366;-76
2021/05/02 01:31:35;;;;;;;;;;;19.60;59.30;;;;;;5048800;28;19916;-76
2021/05/02 01:34:01;;;;;;;;;;;19.60;59.30;;;;;;5051480;28;20116;-76
2021/05/02 01:36:27;;;;;;;;;;;19.60;59.30;;;;;;5033429;28;19913;-77
2021/05/02 01:38:54;;;;;;;;;;;19.60;59.20;;;;;;5031721;28;20253;-76
2021/05/02 01:41:19;;;;;;;;;;;19.60;59.20;;;;;;5038258;28;19919;-77
2021/05/02 01:43:45;;;;;;;;;;;19.60;59.20;;;;;;5052109;28;19909;-77
2021/05/02 01:46:14;;;;;;;;;;;19.60;59.20;;;;;;5054413;28;19954;-76
2021/05/02 01:48:40;;;;;;;;;;;19.60;59.20;;;;;;5053980;28;19928;-76
2021/05/02 01:51:08;;;;;;;;;;;19.60;59.20;;;;;;5038244;28;20277;-76
2021/05/02 01:53:35;;;;;;;;;;;19.60;59.20;;;;;;5037198;28;19909;-77
2021/05/02 01:56:01;;;;;;;;;;;19.60;59.30;;;;;;5039536;28;19916;-76
2021/05/02 01:58:27;;;;;;;;;;;19.60;59.20;;;;;;5051500;28;19971;-77
2021/05/02 02:00:56;;;;;;;;;;;19.50;59.30;;;;;;5054952;28;19927;-77
2021/05/02 02:03:22;;;;;;;;;;;19.60;59.20;;;;;;5053791;28;19913;-76
2021/05/02 02:05:48;;;;;;;;;;;19.60;59.20;;;;;;5040086;28;20404;-77
2021/05/02 02:08:14;;;;;;;;;;;19.50;59.20;;;;;;5054401;28;19921;-76
2021/05/02 02:10:40;;;;;;;;;;;19.50;59.20;;;;;;5035569;28;19965;-77
2021/05/02 02:13:11;;;;;;;;;;;19.60;59.20;;;;;;5048714;28;19913;-77
2021/05/02 02:15:36;;;;;;;;;;;19.50;59.20;;;;;;5055901;28;20007;-76
2021/05/02 02:18:02;;;;;;;;;;;19.50;59.20;;;;;;5056984;28;20309;-76
2021/05/02 02:20:28;;;;;;;;;;;19.50;59.20;;;;;;5048407;28;19912;-77
2021/05/02 02:22:56;;;;;;;;;;;19.60;59.20;;;;;;5057386;28;19915;-76
2021/05/02 02:25:25;;;;;;;;;;;19.50;59.20;;;;;;5057501;28;19921;-77
2021/05/02 02:27:51;;;;;;;;;;;19.50;59.20;;;;;;5035671;28;19909;-76
2021/05/02 02:30:18;;;;;;;;;;;19.50;59.20;;;;;;5053512;28;20289;-76
2021/05/02 02:32:45;;;;;;;;;;;19.50;59.20;;;;;;5053911;28;20325;-77
2021/05/02 02:35:12;;;;;;;;;;;19.50;59.20;;;;;;5054719;28;19923;-76
2021/05/02 02:37:42;;;;;;;;;;;19.50;59.20;;;;;;5030380;28;19912;-76
2021/05/02 02:40:08;;;;;;;;;;;19.50;59.20;;;;;;5054280;28;20342;-76
2021/05/02 02:42:38;;;;;;;;;;;19.50;59.20;;;;;;5036623;28;19913;-77
2021/05/02 02:45:05;;;;;;;;;;;19.50;59.20;;;;;;5035887;28;19995;-77
2021/05/02 02:47:36;;;;;;;;;;;19.50;59.20;;;;;;5022939;28;19913;-76
2021/05/02 02:50:05;;;;;;;;;;;19.50;59.20;;;;;;5035721;28;19979;-79
2021/05/02 02:52:31;;;;;;;;;;;19.50;59.20;;;;;;5047899;28;20243;-76
2021/05/02 02:55:10;;;;;;;;;;;19.50;59.20;;;;;;5052635;28;19913;-76
2021/05/02 02:57:54;;;;;;;;;;;19.50;59.20;;;;;;5053640;28;19912;-77
2021/05/02 03:00:21;;;;;;;;;;;19.50;59.10;;;;;;5051190;28;19974;-76
2021/05/02 03:02:54;;;;;;;;;;;19.50;59.20;;;;;;5031903;28;19909;-76
2021/05/02 03:05:22;;;;;;;;;;;19.50;59.10;;;;;;5054209;28;19919;-76
2021/05/02 03:07:49;;;;;;;;;;;19.50;59.20;;;;;;5054194;28;19923;-77
2021/05/02 03:10:15;;;;;;;;;;;19.50;59.10;;;;;;5052839;28;19966;-76
2021/05/02 03:12:42;;;;;;;;;;;19.50;59.10;;;;;;5052485;28;19954;-77
2021/05/02 03:15:08;;;;;;;;;;;19.50;59.10;;;;;;5053882;28;19966;-76
2021/05/02 03:17:35;;;;;;;;;;;19.50;59.20;;;;;;5053077;28;19920;-76
2021/05/02 03:20:10;;;;;;;;;;;19.50;59.10;;;;;;5032561;28;19963;-76
2021/05/02 03:22:54;;;;;;;;;;;19.50;59.10;;;;;;5050288;28;19909;-77
2021/05/02 03:25:22;;;;;;;;;;;19.50;59.10;;;;;;5049153;28;19947;-76
2021/05/02 03:27:53;;;;;;;;;;;19.40;59.10;;;;;;5036560;28;19940;-76
2021/05/02 03:30:21;;;;;;;;;;;19.40;59.10;;;;;;5040384;28;20313;-77
2021/05/02 03:32:48;;;;;;;;;;;19.40;59.10;;;;;;5052093;28;19909;-77
2021/05/02 03:35:15;;;;;;;;;;;19.40;59.10;;;;;;5030278;28;19916;-76
2021/05/02 03:37:43;;;;;;;;;;;19.40;59.10;;;;;;5021659;28;19917;-76
2021/05/02 03:40:09;;;;;;;;;;;19.40;59.10;;;;;;5039065;28;19967;-76
2021/05/02 03:42:34;;;;;;;;;;;19.40;59.10;;;;;;5052873;28;19944;-77
2021/05/02 03:45:00;;;;;;;;;;;19.40;59.10;;;;;;5046799;28;20304;-76
2021/05/02 03:47:25;;;;;;;;;;;19.40;59.10;;;;;;5032358;28;19909;-77
2021/05/02 03:49:51;;;;;;;;;;;19.50;59.10;;;;;;5045310;28;19909;-76
2021/05/02 03:52:16;;;;;;;;;;;19.40;59.10;;;;;;5048640;28;19924;-76
2021/05/02 03:54:43;;;;;;;;;;;19.50;59.10;;;;;;5030806;28;20376;-76
2021/05/02 03:57:08;;;;;;;;;;;19.40;59.10;;;;;;5052106;28;19913;-76
2021/05/02 03:59:37;;;;;;;;;;;19.40;59.10;;;;;;5038245;28;19921;-76
2021/05/02 04:02:03;;;;;;;;;;;19.40;59.00;;;;;;5033031;28;19909;-77
2021/05/02 04:04:30;;;;;;;;;;;19.50;59.10;;;;;;5052109;28;19927;-76
2021/05/02 04:07:06;;;;;;;;;;;19.40;59.00;;;;;;5051060;28;20004;-76
2021/05/02 04:09:33;;;;;;;;;;;19.40;59.00;;;;;;5049661;28;19908;-77
2021/05/02 04:11:59;;;;;;;;;;;19.40;59.10;;;;;;5034697;28;19909;-77
2021/05/02 04:14:25;;;;;;;;;;;19.40;59.10;;;;;;5051422;28;20235;-77
2021/05/02 04:17:00;;;;;;;;;;;19.40;59.10;;;;;;5034664;28;20246;-77
2021/05/02 04:19:29;;;;;;;;;;;19.40;59.10;;;;;;5053731;28;20439;-77
2021/05/02 04:21:54;;;;;;;;;;;19.40;59.10;;;;;;5037272;28;20268;-76
2021/05/02 04:24:20;;;;;;;;;;;19.40;59.10;;;;;;5043391;28;20011;-77
2021/05/02 04:26:46;;;;;;;;;;;19.40;59.10;;;;;;5049900;28;19951;-76
2021/05/02 04:29:14;;;;;;;;;;;19.40;59.10;;;;;;5027599;28;19974;-77
2021/05/02 04:31:40;;;;;;;;;;;19.40;59.10;;;;;;5031050;28;20348;-78
2021/05/02 04:34:05;;;;;;;;;;;19.40;59.10;;;;;;5021438;28;19941;-77
2021/05/02 04:36:31;;;;;;;;;;;19.40;59.10;;;;;;5028445;28;19924;-76
2021/05/02 04:38:57;;;;;;;;;;;19.40;59.10;;;;;;5045341;28;19923;-78
2021/05/02 04:41:23;;;;;;;;;;;19.40;59.10;;;;;;5046657;28;19909;-77
2021/05/02 04:43:49;;;;;;;;;;;19.40;59.10;;;;;;5045807;28;19909;-77
2021/05/02 04:46:14;;;;;;;;;;;19.40;59.10;;;;;;5052507;28;20318;-76
2021/05/02 04:48:41;;;;;;;;;;;19.40;59.10;;;;;;5043248;28;19913;-76
2021/05/02 04:51:06;;;;;;;;;;;19.40;59.00;;;;;;5025551;28;19909;-76
2021/05/02 04:53:32;;;;;;;;;;;19.40;59.00;;;;;;5039065;28;20351;-77
2021/05/02 04:55:57;;;;;;;;;;;19.40;59.00;;;;;;5033404;28;19917;-77
2021/05/02 04:58:23;;;;;;;;;;;19.40;59.00;;;;;;5051525;28;19974;-76
2021/05/02 05:00:48;;;;;;;;;;;19.40;59.00;;;;;;5028646;28;19955;-77
2021/05/02 05:03:15;;;;;;;;;;;19.40;59.00;;;;;;5048673;28;19909;-77
2021/05/02 05:05:41;;;;;;;;;;;19.40;59.00;;;;;;5039303;28;19967;-76
2021/05/02 05:08:07;;;;;;;;;;;19.40;59.00;;;;;;5049444;28;19917;-75
2021/05/02 05:10:32;;;;;;;;;;;19.40;59.00;;;;;;5028730;28;19912;-76
2021/05/02 05:12:58;;;;;;;;;;;19.40;59.00;;;;;;5048289;28;19993;-76
2021/05/02 05:15:23;;;;;;;;;;;19.40;59.00;;;;;;5045490;28;20003;-77
2021/05/02 05:17:49;;;;;;;;;;;19.40;59.00;;;;;;5029467;28;19971;-76
2021/05/02 05:20:14;;;;;;;;;;;19.40;59.10;;;;;;5052583;28;19912;-76
2021/05/02 05:22:40;;;;;;;;;;;19.40;59.10;;;;;;5050941;28;19966;-76
2021/05/02 05:25:06;;;;;;;;;;;19.40;59.10;;;;;;5035167;28;19908;-76
2021/05/02 05:27:31;;;;;;;;;;;19.40;59.10;;;;;;5053763;28;19908;-78
2021/05/02 05:29:57;;;;;;;;;;;19.30;59.10;;;;;;5033779;28;20235;-76
2021/05/02 05:32:22;;;;;;;;;;;19.40;59.10;;;;;;5036552;28;20055;-76
2021/05/02 05:34:48;;;;;;;;;;;19.30;59.10;;;;;;5054424;28;19912;-76
2021/05/02 05:37:13;;;;;;;;;;;19.30;59.20;;;;;;5036444;28;19913;-76
2021/05/02 05:39:39;;;;;;;;;;;19.40;59.10;;;;;;5053378;28;19916;-76
2021/05/02 05:42:05;;;;;;;;;;;19.40;59.20;;;;;;5053026;28;19921;-76
2021/05/02 05:44:30;;;;;;;;;;;19.40;59.10;;;;;;5054584;28;19927;-76
2021/05/02 05:46:56;;;;;;;;;;;19.40;59.10;;;;;;5050322;28;20321;-76
2021/05/02 05:49:22;;;;;;;;;;;19.30;59.10;;;;;;5036239;28;19909;-77
2021/05/02 05:51:51;;;;;;;;;;;19.40;59.10;;;;;;5052565;28;19948;-77
2021/05/02 05:54:16;;;;;;;;;;;19.40;59.10;;;;;;5054410;28;19925;-76
2021/05/02 05:56:42;;;;;;;;;;;19.30;59.10;;;;;;5054245;28;19958;-76
2021/05/02 05:59:08;;;;;;;;;;;19.30;59.20;;;;;;5038336;28;19909;-76
2021/05/02 06:01:33;;;;;;;;;;;19.30;59.10;;;;;;5036545;28;19952;-77
2021/05/02 06:03:59;;;;;;;;;;;19.40;59.10;;;;;;5052768;28;20346;-77
2021/05/02 06:06:32;;;;;;;;;;;19.40;59.10;;;;;;5054088;28;20341;-77
2021/05/02 06:08:59;;;;;;;;;;;19.30;59.10;;;;;;5054232;28;19916;-76
2021/05/02 06:11:25;;;;;;;;;;;19.40;59.10;;;;;;5031354;28;19920;-77
2021/05/02 06:13:50;;;;;;;;;;;19.30;59.10;;;;;;5046492;28;19919;-77
2021/05/02 06:16:16;;;;;;;;;;;19.30;59.00;;;;;;5048182;28;19958;-77
2021/05/02 06:18:41;;;;;;;;;;;19.40;59.00;;;;;;5028465;28;20382;-76
2021/05/02 06:21:07;;;;;;;;;;;19.40;59.00;;;;;;5036144;28;20411;-76
2021/05/02 06:23:32;;;;;;;;;;;19.40;59.00;;;;;;5044123;28;20063;-78
2021/05/02 06:25:58;;;;;;;;;;;19.40;59.00;;;;;;5054025;28;19931;-76
2021/05/02 06:28:23;;;;;;;;;;;19.40;58.90;;;;;;5038384;28;20311;-77
2021/05/02 06:30:49;;;;;;;;;;;19.40;58.90;;;;;;5053487;28;19936;-77
2021/05/02 06:33:14;;;;;;;;;;;19.40;58.80;;;;;;5036899;28;19913;-77
2021/05/02 06:35:40;;;;;;;;;;;19.40;58.80;;;;;;5050282;28;19970;-77
2021/05/02 06:38:05;;;;;;;;;;;19.40;58.80;;;;;;5034812;28;19936;-76
2021/05/02 06:40:34;;;;;;;;;;;19.40;58.80;;;;;;5034321;28;19952;-76
2021/05/02 06:43:02;;;;;;;;;;;19.40;58.80;;;;;;5052817;28;19916;-76
2021/05/02 06:45:27;;;;;;;;;;;19.40;58.80;;;;;;5031850;28;20254;-76
2021/05/02 06:47:53;;;;;;;;;;;19.40;58.80;;;;;;5048086;28;19962;-76
2021/05/02 06:50:18;;;;;;;;;;;19.40;58.80;;;;;;5053027;28;19909;-76
2021/05/02 06:52:44;;;;;;;;;;;19.40;58.80;;;;;;5053875;28;19973;-76
2021/05/02 06:55:09;;;;;;;;;;;19.40;58.80;;;;;;5046966;28;19960;-76
2021/05/02 06:57:35;;;;;;;;;;;19.40;58.80;;;;;;5054047;28;20349;-76
2021/05/02 07:00:01;;;;;;;;;;;19.40;58.80;;;;;;5037133;28;19908;-76
2021/05/02 07:02:26;;;;;;;;;;;19.40;58.80;;;;;;5052241;28;19963;-76
2021/05/02 07:04:52;;;;;;;;;;;19.40;58.80;;;;;;5043176;28;20373;-77
2021/05/02 07:07:17;;;;;;;;;;;19.40;58.80;;;;;;5034945;28;19923;-77
2021/05/02 07:09:44;;;;;;;;;;;19.40;58.80;;;;;;5048945;28;20265;-77
2021/05/02 07:12:09;;;;;;;;;;;19.40;58.80;;;;;;5051128;28;19909;-76
2021/05/02 07:14:35;;;;;;;;;;;19.40;58.80;;;;;;5032489;28;19937;-76
2021/05/02 07:17:00;;;;;;;;;;;19.40;58.70;;;;;;5047205;28;19921;-76
2021/05/02 07:19:26;;;;;;;;;;;19.40;58.70;;;;;;5030116;28;19909;-77
2021/05/02 07:21:56;;;;;;;;;;;19.40;58.70;;;;;;5033322;28;19920;-77
2021/05/02 07:24:22;;;;;;;;;;;19.40;58.70;;;;;;5056027;28;19979;-77
2021/05/02 07:26:47;;;;;;;;;;;19.40;58.70;;;;;;5040177;28;19963;-78
2021/05/02 07:29:12;;;;;;;;;;;19.40;58.70;;;;;;5049206;28;19917;-77
2021/05/02 07:31:38;;;;;;;;;;;19.40;58.60;;;;;;5032614;28;20380;-77
2021/05/02 07:34:04;;;;;;;;;;;19.50;58.60;;;;;;5024766;28;19917;-77
2021/05/02 07:36:29;;;;;;;;;;;19.40;58.60;;;;;;5043621;28;19917;-77
2021/05/02 07:38:55;;;;;;;;;;;19.40;58.50;;;;;;5034369;28;19917;-77
2021/05/02 07:41:20;;;;;;;;;;;19.40;58.60;;;;;;5046444;28;20351;-77
2021/05/02 07:43:46;;;;;;;;;;;19.50;58.60;;;;;;5052282;28;19909;-77
2021/05/02 07:46:11;;;;;;;;;;;19.50;58.50;;;;;;5052456;28;20357;-77
2021/05/02 07:48:37;;;;;;;;;;;19.50;58.50;;;;;;5029996;28;20365;-77
2021/05/02 07:51:03;;;;;;;;;;;19.40;58.50;;;;;;5045104;28;19908;-77
2021/05/02 07:53:28;;;;;;;;;;;19.50;58.50;;;;;;5036615;28;19931;-78
2021/05/02 07:55:54;;;;;;;;;;;19.50;58.50;;;;;;5038526;28;19921;-78
2021/05/02 07:58:19;;;;;;;;;;;19.40;58.50;;;;;;5052299;28;19925;-77
2021/05/02 08:00:45;;;;;;;;;;;19.50;58.50;;;;;;5030700;28;19920;-77
2021/05/02 08:03:10;;;;;;;;;;;19.40;58.50;;;;;;5033853;28;20354;-77
2021/05/02 08:05:36;;;;;;;;;;;19.40;58.50;;;;;;5051602;28;20310;-77
2021/05/02 08:08:01;;;;;;;;;;;19.40;58.60;;;;;;5049741;28;20325;-81
2021/05/02 08:10:28;;;;;;;;;;;19.40;58.60;;;;;;5050925;28;19919;-77
2021/05/02 08:12:56;;;;;;;;;;;19.50;58.60;;;;;;5042598;28;19959;-77
2021/05/02 08:15:22;;;;;;;;;;;19.40;58.60;;;;;;5034155;28;19920;-77
2021/05/02 08:17:47;;;;;;;;;;;19.40;58.60;;;;;;5026232;28;20286;-77
2021/05/02 08:20:13;;;;;;;;;;;19.40;58.60;;;;;;5027739;28;19971;-77
2021/05/02 08:22:39;;;;;;;;;;;19.40;58.60;;;;;;5052480;28;19970;-77
2021/05/02 08:25:05;;;;;;;;;;;19.40;58.60;;;;;;5050382;28;19913;-77
2021/05/02 08:27:31;;;;;;;;;;;19.40;58.60;;;;;;5051985;28;20586;-78
2021/05/02 08:29:56;;;;;;;;;;;19.40;58.60;;;;;;5033614;28;19909;-80
2021/05/02 08:32:25;;;;;;;;;;;19.40;58.70;;;;;;5051983;28;19913;-78
2021/05/02 08:34:51;;;;;;;;;;;19.40;58.70;;;;;;5028159;28;19947;-77
2021/05/02 08:37:16;;;;;;;;;;;19.40;58.70;;;;;;5031743;28;20369;-75
2021/05/02 08:39:42;;;;;;;;;;;19.40;58.80;;;;;;5048457;28;19970;-78
2021/05/02 08:42:07;;;;;;;;;;;19.40;58.80;;;;;;5046101;28;19932;-76
2021/05/02 08:44:34;;;;;;;;;;;19.40;58.70;;;;;;5046220;28;20000;-77
2021/05/02 08:46:59;;;;;;;;;;;19.40;58.70;;;;;;5046738;28;19920;-76
2021/05/02 08:49:25;;;;;;;;;;;19.40;58.70;;;;;;5033068;28;19931;-77
2021/05/02 08:51:51;;;;;;;;;;;19.40;58.80;;;;;;5051033;28;21535;-76
2021/05/02 08:54:17;;;;;;;;;;;19.40;58.80;;;;;;5048111;28;21327;-76
2021/05/02 08:56:43;;;;;;;;;;;19.40;58.80;;;;;;5037675;28;19975;-78
2021/05/02 08:59:09;;;;;;;;;;;19.40;58.80;;;;;;5050309;28;19951;-78
2021/05/02 09:01:34;;;;;;;;;;;19.40;58.80;;;;;;5052153;28;19913;-78
2021/05/02 09:04:03;;;;;;;;;;;19.40;58.80;;;;;;5028319;28;19919;-78
2021/05/02 09:06:30;;;;;;;;;;;19.40;58.60;;;;;;5033531;28;19916;-78
2021/05/02 09:08:58;;;;;;;;;;;19.50;58.50;;;;;;5050151;28;19916;-78
2021/05/02 09:11:32;;;;;;;;;;;19.50;58.40;;;;;;5044268;28;19921;-79
2021/05/02 09:14:00;;;;;;;;;;;19.50;58.50;;;;;;5026524;28;20341;-78
2021/05/02 09:16:26;;;;;;;;;;;19.50;58.50;;;;;;5046989;28;19932;-81
2021/05/02 09:18:57;;;;;;;;;;;19.40;58.60;;;;;;5033930;28;19916;-78
2021/05/02 09:21:25;;;;;;;;;;;19.40;58.70;;;;;;5047631;28;19948;-81
2021/05/02 09:23:51;;;;;;;;;;;19.40;58.80;;;;;;5051158;28;19913;-79
2021/05/02 09:26:23;;;;;;;;;;;19.40;58.80;;;;;;5051835;28;19915;-77
2021/05/02 09:28:56;;;;;;;;;;;19.40;58.80;;;;;;5033466;28;20408;-79
2021/05/02 09:31:27;;;;;;;;;;;19.50;58.70;;;;;;5050027;28;19908;-78
2021/05/02 09:33:53;;;;;;;;;;;19.50;58.50;;;;;;5046851;28;19921;-78
2021/05/02 09:36:20;;;;;;;;;;;19.50;58.50;;;;;;5046645;28;19912;-77
2021/05/02 09:38:46;;;;;;;;;;;19.50;58.40;;;;;;5034259;28;19966;-78
2021/05/02 09:41:12;;;;;;;;;;;19.60;58.40;;;;;;5033396;28;19928;-78
2021/05/02 09:43:41;;;;;;;;;;;19.50;58.30;;;;;;5028804;28;20012;-78
2021/05/02 09:48:51;;;;;;;;;;;19.50;58.40;;;;;;5054378;28;19913;-81
2021/05/02 09:51:16;;;;;;;;;;;19.50;58.40;;;;;;5049268;28;19916;-78
2021/05/02 09:53:57;;;;;;;;;;;19.50;58.50;;;;;;5048814;28;20358;-79
2021/05/02 09:56:29;;;;;;;;;;;19.50;58.50;;;;;;5048552;28;19917;-79
2021/05/02 09:58:55;;;;;;;;;;;19.50;58.50;;;;;;5050949;28;20039;-78
2021/05/02 10:01:21;;;;;;;;;;;19.50;58.40;;;;;;5048181;28;20020;-81
2021/05/02 10:03:50;;;;;;;;;;;19.50;58.40;;;;;;5047079;28;19938;-78
2021/05/02 10:06:27;;;;;;;;;;;19.50;58.40;;;;;;5048529;28;19947;-80
2021/05/02 10:08:53;;;;;;;;;;;19.50;58.30;;;;;;5048439;28;20015;-80
2021/05/02 10:11:19;;;;;;;;;;;19.50;58.30;;;;;;5050317;28;19988;-80
2021/05/02 10:13:44;;;;;;;;;;;19.50;58.40;;;;;;5048439;28;20358;-78
2021/05/02 10:16:12;;;;;;;;;;;19.50;58.40;;;;;;5048711;28;19917;-78
2021/05/02 10:18:38;;;;;;;;;;;19.40;58.50;;;;;;5029056;28;19929;-80
2021/05/02 10:21:05;;;;;;;;;;;19.40;58.50;;;;;;5051565;28;19908;-77
2021/05/02 10:23:31;;;;;;;;;;;19.50;58.50;;;;;;5035176;28;19921;-79
2021/05/02 10:25:57;;;;;;;;;;;19.50;58.30;;;;;;5050069;28;19908;-78
2021/05/02 10:28:26;;;;;;;;;;;19.50;58.20;;;;;;5048572;28;20412;-78
2021/05/02 10:30:53;;;;;;;;;;;19.50;58.10;;;;;;5049746;28;19909;-78
2021/05/02 10:33:32;;;;;;;;;;;19.60;58.00;;;;;;5038787;28;19909;-78
2021/05/02 10:36:03;;;;;;;;;;;19.70;57.90;;;;;;5035730;28;19924;-79
2021/05/02 10:38:47;;;;;;;;;;;19.70;57.80;;;;;;5029810;28;19931;-78
2021/05/02 10:41:20;;;;;;;;;;;19.70;57.70;;;;;;5049696;28;19947;-80
2021/05/02 10:43:45;;;;;;;;;;;19.80;57.50;;;;;;5053771;28;19909;-78
2021/05/02 10:46:31;;;;;;;;;;;19.70;57.60;;;;;;5037485;28;19916;-76
2021/05/02 10:48:57;;;;;;;;;;;19.70;57.70;;;;;;5019356;28;19909;-76
2021/05/02 10:51:25;;;;;;;;;;;19.70;57.80;;;;;;5055721;28;20417;-78
2021/05/02 10:54:03;;;;;;;;;;;19.60;57.80;;;;;;5050393;28;19920;-79
2021/05/02 10:56:41;;;;;;;;;;;19.70;57.70;;;;;;5048991;28;19923;-77
2021/05/02 10:59:07;;;;;;;;;;;19.70;57.70;;;;;;5050146;28;19915;-77
2021/05/02 11:01:35;;;;;;;;;;;19.70;57.70;;;;;;5045104;28;19909;-77
2021/05/02 11:04:01;;;;;;;;;;;19.70;57.60;;;;;;5050986;28;19919;-77
2021/05/02 11:06:53;;;;;;;;;;;19.70;57.40;;;;;;5052041;28;19909;-77
2021/05/02 11:09:19;;;;;;;;;;;19.80;57.40;;;;;;5029115;28;19929;-78
2021/05/02 11:11:47;;;;;;;;;;;19.80;57.30;;;;;;5052321;28;19915;-78
2021/05/02 11:14:14;;;;;;;;;;;19.80;57.30;;;;;;5035135;28;19909;-77
2021/05/02 11:16:40;;;;;;;;;;;19.80;57.40;;;;;;5051294;28;19920;-76
2021/05/02 11:19:07;;;;;;;;;;;19.70;57.60;;;;;;5049948;28;19955;-77
2021/05/02 11:21:51;;;;;;;;;;;19.60;57.70;;;;;;5053755;28;19916;-76
2021/05/02 11:24:23;;;;;;;;;;;19.70;57.70;;;;;;5044655;28;19948;-77
2021/05/02 11:29:26;;;;;;;;;;;19.70;57.60;;;;;;5047355;28;20262;-77
2021/05/02 11:31:51;;;;;;;;;;;19.70;57.70;;;;;;5047979;28;20429;-78
2021/05/02 11:34:17;;;;;;;;;;;19.60;57.80;;;;;;5045878;28;19925;-77
2021/05/02 11:36:43;;;;;;;;;;;19.60;58.00;;;;;;5045351;28;19925;-77
2021/05/02 11:39:28;;;;;;;;;;;19.50;58.00;;;;;;5045633;28;19932;-78
2021/05/02 11:42:01;;;;;;;;;;;19.50;58.10;;;;;;5035209;28;19908;-77
2021/05/02 11:44:27;;;;;;;;;;;19.60;58.00;;;;;;5025752;28;19923;-78
2021/05/02 11:46:52;;;;;;;;;;;19.60;57.90;;;;;;5027762;28;19909;-77
2021/05/02 11:49:18;;;;;;;;;;;19.60;57.90;;;;;;5045915;28;19909;-78
2021/05/02 11:51:54;;;;;;;;;;;19.60;57.90;;;;;;5045784;28;19920;-77
2021/05/02 11:54:19;;;;;;;;;;;19.50;58.00;;;;;;5025777;28;19960;-78
2021/05/02 11:56:49;;;;;;;;;;;19.50;57.90;;;;;;5028043;28;19956;-81
2021/05/02 11:59:15;;;;;;;;;;;19.60;57.80;;;;;;5049559;28;19935;-78
2021/05/02 12:01:42;;;;;;;;;;;19.70;57.80;;;;;;5053497;28;19913;-77
2021/05/02 12:04:09;;;;;;;;;;;19.70;57.60;;;;;;5035420;28;20546;-79
2021/05/02 12:06:36;;;;;;;;;;;19.70;57.40;;;;;;5029031;28;20007;-77
2021/05/02 12:09:09;;;;;;;;;;;19.80;57.40;;;;;;5029441;28;19908;-77
2021/05/02 12:11:34;;;;;;;;;;;19.70;57.50;;;;;;5045054;28;20037;-76
2021/05/02 12:14:00;;;;;;;;;;;19.70;57.50;;;;;;5029211;28;20007;-77
2021/05/02 12:16:27;;;;;;;;;;;19.70;57.50;;;;;;5047754;28;20357;-77
2021/05/02 12:19:03;;;;;;;;;;;19.80;57.30;;;;;;5048699;28;19921;-77
2021/05/02 12:21:30;;;;;;;;;;;19.80;57.20;;;;;;5051920;28;19917;-77
2021/05/02 12:24:10;;;;;;;;;;;19.80;57.10;;;;;;5046645;28;19908;-76
2021/05/02 12:26:43;;;;;;;;;;;19.80;56.90;;;;;;5049206;28;19932;-76
2021/05/02 12:29:13;;;;;;;;;;;19.90;57.00;;;;;;5047392;28;19913;-76
2021/05/02 12:31:39;;;;;;;;;;;19.90;56.90;;;;;;5050194;28;20278;-77
2021/05/02 12:34:07;;;;;;;;;;;19.90;56.90;;;;;;5049632;28;19909;-76
2021/05/02 12:36:33;;;;;;;;;;;19.90;56.90;;;;;;5029055;28;20251;-76
2021/05/02 12:39:03;;;;;;;;;;;19.90;56.90;;;;;;5051575;28;19920;-77
2021/05/02 12:41:29;;;;;;;;;;;19.90;57.00;;;;;;5049487;28;20261;-79
2021/05/02 12:43:54;;;;;;;;;;;19.90;56.90;;;;;;5036290;28;19962;-77
2021/05/02 12:46:39;;;;;;;;;;;19.90;56.90;;;;;;5033747;28;19928;-76
2021/05/02 12:49:12;;;;;;;;;;;19.90;56.90;;;;;;5037501;28;20012;-76
2021/05/02 12:51:38;;;;;;;;;;;19.90;56.90;;;;;;5034339;28;20007;-79
2021/05/02 12:54:11;;;;;;;;;;;19.90;58.00;;;;;;5047677;28;20007;-78
2021/05/02 12:56:39;;;;;;;;;;;19.90;57.80;;;;;;5045161;28;20436;-78
2021/05/02 12:59:27;;;;;;;;;;;20.00;57.60;;;;;;5033958;28;19916;-78
2021/05/02 13:02:03;;;;;;;;;;;20.00;57.70;;;;;;5030629;28;19956;-78
2021/05/02 13:04:42;;;;;;;;;;;20.00;57.80;;;;;;5032772;28;19936;-77
2021/05/02 13:07:07;;;;;;;;;;;20.00;57.80;;;;;;5047611;28;19917;-78
2021/05/02 13:09:46;;;;;;;;;;;20.00;57.80;;;;;;5031667;28;19909;-78
2021/05/02 13:12:12;;;;;;;;;;;20.00;57.90;;;;;;5034687;28;19924;-78
2021/05/02 13:14:38;;;;;;;;;;;20.00;57.80;;;;;;5050640;28;19913;-79
2021/05/02 13:17:08;;;;;;;;;;;20.00;57.80;;;;;;5031889;28;19909;-78
2021/05/02 13:19:35;;;;;;;;;;;20.00;57.70;;;;;;5052187;28;19940;-78
2021/05/02 13:22:13;;;;;;;;;;;20.00;57.60;;;;;;5049703;28;19913;-78
2021/05/02 13:24:54;;;;;;;;;;;20.00;57.70;;;;;;5044530;28;20326;-78
2021/05/02 13:27:31;;;;;;;;;;;20.00;57.60;;;;;;5050078;28;19909;-81
2021/05/02 13:29:57;;;;;;;;;;;20.00;57.70;;;;;;5041847;28;19908;-77
2021/05/02 13:32:22;;;;;;;;;;;20.00;57.60;;;;;;5046145;28;19975;-78
2021/05/02 13:34:48;;;;;;;;;;;20.00;57.60;;;;;;5030957;28;19912;-78
2021/05/02 13:37:16;;;;;;;;;;;20.00;57.50;;;;;;5051489;28;19917;-78
2021/05/02 13:39:41;;;;;;;;;;;20.10;57.40;;;;;;5052514;28;19921;-78
2021/05/02 13:42:08;;;;;;;;;;;20.10;57.30;;;;;;5035605;28;19915;-78
2021/05/02 13:44:34;;;;;;;;;;;20.10;57.30;;;;;;5041524;28;19908;-78
2021/05/02 13:46:59;;;;;;;;;;;20.10;57.20;;;;;;5055850;28;19916;-78
2021/05/02 13:49:25;;;;;;;;;;;20.10;57.20;;;;;;5037747;28;19955;-78
2021/05/02 13:51:51;;;;;;;;;;;20.10;57.20;;;;;;5038631;28;19955;-80
2021/05/02 13:54:17;;;;;;;;;;;20.10;57.10;;;;;;5037161;28;20338;-78
2021/05/02 13:56:43;;;;;;;;;;;20.10;57.10;;;;;;5054484;28;19917;-78
2021/05/02 13:59:08;;;;;;;;;;;20.10;57.00;;;;;;5038350;28;19962;-78
2021/05/02 14:01:34;;;;;;;;;;;20.20;56.90;;;;;;5035115;28;19928;-78
2021/05/02 14:04:03;;;;;;;;;;;20.20;56.90;;;;;;5034286;28;20009;-78
2021/05/02 14:06:29;;;;;;;;;;;20.20;56.80;;;;;;5035400;28;19910;-82
2021/05/02 14:08:55;;;;;;;;;;;20.20;56.80;;;;;;5036847;28;19978;-78
2021/05/02 14:11:22;;;;;;;;;;;20.10;56.90;;;;;;5040745;28;19913;-79
2021/05/02 14:13:48;;;;;;;;;;;20.10;57.00;;;;;;5033149;28;19913;-78
2021/05/02 14:16:14;;;;;;;;;;;20.00;57.10;;;;;;5052414;28;19919;-79
2021/05/02 14:18:39;;;;;;;;;;;20.10;57.20;;;;;;5033516;28;19917;-78
2021/05/02 14:21:05;;;;;;;;;;;20.10;57.20;;;;;;5050429;28;20350;-78
2021/05/02 14:23:31;;;;;;;;;;;20.10;57.10;;;;;;5041070;28;19961;-78